createdAt,value
2023-03-03T00:00:39.908Z,-2.55
2023-03-03T00:01:39.657Z,-2.54
2023-03-03T00:02:40.066Z,-2.5
2023-03-03T00:03:40.205Z,-2.42
2023-03-03T00:04:39.822Z,-2.34
2023-03-03T00:05:39.797Z,-2.37
2023-03-03T00:06:39.511Z,-2.36
2023-03-03T00:07:39.743Z,-2.39
2023-03-03T00:08:39.714Z,-2.39
2023-03-03T00:09:39.698Z,-2.27
2023-03-03T00:10:39.408Z,-2.32
2023-03-03T00:11:39.397Z,-2.24
2023-03-03T00:12:39.647Z,-2.2
2023-03-03T00:13:39.594Z,-2.24
2023-03-03T00:14:39.638Z,-2.27
2023-03-03T00:15:39.682Z,-2.27
2023-03-03T00:16:39.569Z,-2.18
2023-03-03T00:17:39.549Z,-2.25
2023-03-03T00:18:39.508Z,-2.25
2023-03-03T00:19:39.470Z,-2.18
2023-03-03T00:20:39.485Z,-2.23
2023-03-03T00:21:39.207Z,-2.25
2023-03-03T00:22:39.169Z,-2.24
2023-03-03T00:23:39.410Z,-2.27
2023-03-03T00:24:39.113Z,-2.36
2023-03-03T00:25:39.092Z,-2.32
2023-03-03T00:26:38.846Z,-2.28
2023-03-03T00:27:39.295Z,-2.34
2023-03-03T00:28:39.278Z,-2.4
2023-03-03T00:29:38.997Z,-2.32
2023-03-03T00:30:39.226Z,-2.36
2023-03-03T00:31:39.129Z,-2.36
2023-03-03T00:32:39.214Z,-2.42
2023-03-03T00:33:38.955Z,-2.39
2023-03-03T00:34:38.887Z,-2.37
2023-03-03T00:35:39.306Z,-2.32
2023-03-03T00:36:39.148Z,-2.34
2023-03-03T00:37:39.124Z,-2.4
2023-03-03T00:38:38.814Z,-2.46
2023-03-03T00:39:39.057Z,-2.39
2023-03-03T00:40:38.785Z,-2.46
2023-03-03T00:41:39.020Z,-2.3
2023-03-03T00:42:38.983Z,-2.4
2023-03-03T00:43:38.977Z,-2.4
2023-03-03T00:44:38.941Z,-2.4
2023-03-03T00:45:38.923Z,-2.42
2023-03-03T00:46:39.076Z,-2.27
2023-03-03T00:47:38.618Z,-2.32
2023-03-03T00:48:38.626Z,-2.28
2023-03-03T00:49:38.344Z,-2.39
2023-03-03T00:50:38.588Z,-2.43
2023-03-03T00:51:38.783Z,-2.27
2023-03-03T00:52:38.821Z,-2.39
2023-03-03T00:53:38.509Z,-2.37
2023-03-03T00:54:38.479Z,-2.36
2023-03-03T00:55:38.711Z,-2.34
2023-03-03T00:56:38.688Z,-2.43
2023-03-03T00:57:38.666Z,-2.49
2023-03-03T00:58:39.340Z,-2.49
2023-03-03T00:59:39.588Z,-2.53
2023-03-03T01:00:39.308Z,-2.39
2023-03-03T01:01:39.715Z,-2.36
2023-03-03T01:02:39.142Z,-2.43
2023-03-03T01:03:39.247Z,-2.36
2023-03-03T01:04:39.473Z,-2.36
2023-03-03T01:05:38.971Z,-2.37
2023-03-03T01:06:38.958Z,-2.42
2023-03-03T01:07:38.898Z,-2.42
2023-03-03T01:08:39.446Z,-2.25
2023-03-03T01:09:39.414Z,-2.27
2023-03-03T01:10:39.377Z,-2.24
2023-03-03T01:11:39.322Z,-2.12
2023-03-03T01:12:39.324Z,-2.17
2023-03-03T01:13:42.074Z,-2.12
2023-03-03T01:14:39.305Z,-2.18
2023-03-03T01:15:39.071Z,-2.2
2023-03-03T01:16:39.000Z,-2.09
2023-03-03T01:17:38.954Z,-2.06
2023-03-03T01:18:38.921Z,-2.09
2023-03-03T01:19:39.182Z,-2.09
2023-03-03T01:20:39.147Z,-2.07
2023-03-03T01:21:39.366Z,-2.02
2023-03-03T01:22:39.105Z,-2.07
2023-03-03T01:23:38.833Z,-2.07
2023-03-03T01:24:38.818Z,-2.12
2023-03-03T01:25:39.092Z,-2.15
2023-03-03T01:26:38.770Z,-2.05
2023-03-03T01:27:38.725Z,-1.97
2023-03-03T01:28:38.756Z,-2.09
2023-03-03T01:29:38.952Z,-1.96
2023-03-03T01:30:38.933Z,-1.89
2023-03-03T01:31:39.183Z,-1.92
2023-03-03T01:32:38.926Z,-1.89
2023-03-03T01:34:38.836Z,-1.81
2023-03-03T01:35:39.216Z,-1.84
2023-03-03T01:36:38.813Z,-1.82
2023-03-03T01:37:38.559Z,-1.86
2023-03-03T01:38:38.493Z,-1.85
2023-03-03T01:39:38.759Z,-1.84
2023-03-03T01:40:38.757Z,-1.81
2023-03-03T01:41:38.744Z,-1.85
2023-03-03T01:42:38.726Z,-1.78
2023-03-03T01:43:38.410Z,-1.78
2023-03-03T01:44:38.407Z,-1.71
2023-03-03T01:45:38.613Z,-1.74
2023-03-03T01:46:38.574Z,-1.71
2023-03-03T01:47:38.558Z,-1.82
2023-03-03T01:48:38.553Z,-1.82
2023-03-03T01:49:38.278Z,-1.84
2023-03-03T01:50:38.249Z,-1.86
2023-03-03T01:51:38.501Z,-1.82
2023-03-03T01:52:38.516Z,-1.89
2023-03-03T01:53:38.486Z,-1.86
2023-03-03T01:54:38.422Z,-1.82
2023-03-03T01:55:38.255Z,-1.86
2023-03-03T01:56:38.148Z,-1.89
2023-03-03T01:57:38.144Z,-1.89
2023-03-03T01:58:38.335Z,-1.86
2023-03-03T01:59:38.057Z,-1.82
2023-03-03T02:00:38.046Z,-1.85
2023-03-03T02:01:38.401Z,-1.81
2023-03-03T02:02:38.367Z,-1.86
2023-03-03T02:03:37.972Z,-1.91
2023-03-03T02:04:38.208Z,-1.92
2023-03-03T02:05:38.231Z,-2
2023-03-03T02:06:38.170Z,-1.92
2023-03-03T02:07:38.139Z,-1.92
2023-03-03T02:08:38.636Z,-1.99
2023-03-03T02:09:38.398Z,-1.99
2023-03-03T02:10:38.602Z,-1.96
2023-03-03T02:11:38.584Z,-1.96
2023-03-03T02:12:38.582Z,-1.97
2023-03-03T02:13:38.570Z,-1.96
2023-03-03T02:14:38.260Z,-2.07
2023-03-03T02:15:38.509Z,-2
2023-03-03T02:16:38.280Z,-2.09
2023-03-03T02:17:38.194Z,-2.06
2023-03-03T02:18:38.449Z,-1.94
2023-03-03T02:19:38.411Z,-2
2023-03-03T02:20:38.410Z,-2.1
2023-03-03T02:21:38.450Z,-2.09
2023-03-03T02:22:38.415Z,-2.1
2023-03-03T02:23:38.351Z,-2.1
2023-03-03T02:24:38.308Z,-2.07
2023-03-03T02:25:38.062Z,-2.1
2023-03-03T02:26:38.275Z,-2.14
2023-03-03T02:27:38.257Z,-2.2
2023-03-03T02:28:38.245Z,-2.15
2023-03-03T02:29:38.230Z,-2.23
2023-03-03T02:30:37.928Z,-2.2
2023-03-03T02:31:38.150Z,-2.27
2023-03-03T02:32:38.104Z,-2.25
2023-03-03T02:33:38.135Z,-2.3
2023-03-03T02:34:38.103Z,-2.42
2023-03-03T02:35:37.985Z,-2.34
2023-03-03T02:36:38.126Z,-2.25
2023-03-03T02:37:38.035Z,-2.34
2023-03-03T02:38:37.779Z,-2.37
2023-03-03T02:39:37.485Z,-2.34
2023-03-03T02:40:37.971Z,-2.24
2023-03-03T02:41:38.006Z,-2.27
2023-03-03T02:42:37.685Z,-2.36
2023-03-03T02:43:37.724Z,-2.23
2023-03-03T02:44:37.911Z,-2.28
2023-03-03T02:45:37.790Z,-2.25
2023-03-03T02:46:37.600Z,-2.21
2023-03-03T02:47:37.573Z,-2.21
2023-03-03T02:48:37.807Z,-2.18
2023-03-03T02:49:37.813Z,-2.24
2023-03-03T02:50:37.841Z,-2.12
2023-03-03T02:51:37.989Z,-2.15
2023-03-03T02:52:38.195Z,-2.17
2023-03-03T02:53:38.196Z,-2.06
2023-03-03T02:54:37.922Z,-2.12
2023-03-03T02:55:38.140Z,-1.97
2023-03-03T02:56:38.122Z,-2.07
2023-03-03T02:57:38.194Z,-2.14
2023-03-03T02:58:37.826Z,-2.09
2023-03-03T02:59:38.059Z,-2.09
2023-03-03T03:00:38.127Z,-2.03
2023-03-03T03:01:38.053Z,-2
2023-03-03T03:02:37.989Z,-2.02
2023-03-03T03:03:37.980Z,-2.03
2023-03-03T03:04:38.069Z,-1.96
2023-03-03T03:05:37.665Z,-1.96
2023-03-03T03:06:37.894Z,-1.84
2023-03-03T03:07:38.497Z,-1.84
2023-03-03T03:08:38.464Z,-1.86
2023-03-03T03:09:38.439Z,-1.86
2023-03-03T03:10:38.689Z,-1.94
2023-03-03T03:11:38.712Z,-1.94
2023-03-03T03:12:38.633Z,-1.82
2023-03-03T03:13:38.646Z,-1.86
2023-03-03T03:14:38.606Z,-1.88
2023-03-03T03:15:38.581Z,-1.85
2023-03-03T03:16:38.727Z,-1.88
2023-03-03T03:17:38.299Z,-1.85
2023-03-03T03:18:38.494Z,-1.86
2023-03-03T03:19:38.518Z,-1.84
2023-03-03T03:20:38.466Z,-1.91
2023-03-03T03:21:38.190Z,-1.92
2023-03-03T03:22:37.913Z,-1.82
2023-03-03T03:23:38.432Z,-2.03
2023-03-03T03:24:38.135Z,-1.99
2023-03-03T03:25:38.108Z,-2.03
2023-03-03T03:26:38.075Z,-2.05
2023-03-03T03:27:38.316Z,-2
2023-03-03T03:28:38.181Z,-2.06
2023-03-03T03:29:38.293Z,-2.07
2023-03-03T03:30:38.094Z,-2.07
2023-03-03T03:31:37.998Z,-2.09
2023-03-03T03:32:38.252Z,-2.03
2023-03-03T03:49:49.817Z,-2.14
2023-03-03T03:50:49.442Z,-2.2
2023-03-03T03:51:49.681Z,-2.17
2023-03-03T03:52:49.404Z,-2.27
2023-03-03T03:53:49.636Z,-2.21
2023-03-03T03:54:49.769Z,-2.21
2023-03-03T03:55:49.640Z,-2.25
2023-03-03T03:56:49.071Z,-2.24
2023-03-03T03:57:49.568Z,-2.28
2023-03-03T03:58:49.522Z,-2.34
2023-03-03T03:59:49.271Z,-2.23
2023-03-03T04:00:49.235Z,-2.3
2023-03-03T04:01:48.951Z,-2.28
2023-03-03T04:02:49.509Z,-2.25
2023-03-03T04:03:49.422Z,-2.32
2023-03-03T04:04:49.166Z,-2.37
2023-03-03T04:05:49.476Z,-2.34
2023-03-03T04:06:49.349Z,-2.36
2023-03-03T04:07:49.353Z,-2.32
2023-03-03T04:08:49.347Z,-2.4
2023-03-03T04:09:49.301Z,-2.4
2023-03-03T04:10:48.808Z,-2.36
2023-03-03T04:11:49.035Z,-2.27
2023-03-03T04:12:49.008Z,-2.32
2023-03-03T04:13:49.210Z,-2.43
2023-03-03T04:14:48.930Z,-2.36
2023-03-03T04:15:49.308Z,-2.3
2023-03-03T04:16:48.898Z,-2.28
2023-03-03T04:17:48.871Z,-2.23
2023-03-03T04:18:51.397Z,-2.24
2023-03-03T04:19:48.586Z,-2.17
2023-03-03T04:20:48.802Z,-2.14
2023-03-03T04:21:49.123Z,-2.18
2023-03-03T04:22:49.011Z,-2.21
2023-03-03T04:23:48.797Z,-2.12
2023-03-03T04:24:48.973Z,-2.15
2023-03-03T04:25:48.998Z,-2.07
2023-03-03T04:26:48.680Z,-2
2023-03-03T04:27:48.694Z,-1.99
2023-03-03T04:28:48.904Z,-1.96
2023-03-03T04:29:48.860Z,-1.99
2023-03-03T04:30:49.038Z,-1.97
2023-03-03T04:31:48.835Z,-1.97
2023-03-03T04:32:48.821Z,-1.96
2023-03-03T04:33:48.527Z,-1.86
2023-03-03T04:35:05.528Z,-1.94
2023-03-03T04:35:48.903Z,-1.89
2023-03-03T04:36:48.717Z,-1.86
2023-03-03T04:37:48.856Z,-1.81
2023-03-03T04:38:48.682Z,-1.78
2023-03-03T04:39:48.144Z,-1.81
2023-03-03T04:40:48.660Z,-1.76
2023-03-03T04:41:48.620Z,-1.81
2023-03-03T04:42:48.607Z,-1.76
2023-03-03T04:43:48.064Z,-1.76
2023-03-03T04:44:48.583Z,-1.79
2023-03-03T04:45:48.334Z,-1.84
2023-03-03T04:46:48.265Z,-1.82
2023-03-03T04:47:48.239Z,-1.82
2023-03-03T04:48:48.479Z,-1.89
2023-03-03T04:49:48.202Z,-1.82
2023-03-03T04:50:48.167Z,-1.79
2023-03-03T04:51:48.155Z,-1.74
2023-03-03T04:52:48.395Z,-1.74
2023-03-03T04:53:48.436Z,-1.86
2023-03-03T04:54:48.021Z,-1.82
2023-03-03T04:55:48.077Z,-1.78
2023-03-03T04:56:48.045Z,-1.81
2023-03-03T04:57:48.044Z,-1.82
2023-03-03T04:58:48.282Z,-1.78
2023-03-03T04:59:47.984Z,-1.78
2023-03-03T05:00:47.949Z,-1.78
2023-03-03T05:01:48.458Z,-1.82
2023-03-03T05:02:48.223Z,-1.79
2023-03-03T05:03:48.183Z,-1.78
2023-03-03T05:04:48.192Z,-1.85
2023-03-03T05:05:47.852Z,-1.82
2023-03-03T05:06:47.824Z,-1.76
2023-03-03T05:07:48.115Z,-1.85
2023-03-03T05:08:48.072Z,-1.79
2023-03-03T05:09:48.087Z,-1.79
2023-03-03T05:10:47.504Z,-1.76
2023-03-03T05:11:47.470Z,-1.84
2023-03-03T05:12:47.961Z,-1.85
2023-03-03T05:13:47.951Z,-1.81
2023-03-03T05:14:47.407Z,-1.82
2023-03-03T05:15:48.403Z,-1.82
2023-03-03T05:16:47.896Z,-1.86
2023-03-03T05:17:47.861Z,-1.84
2023-03-03T05:18:47.583Z,-1.88
2023-03-03T05:19:47.817Z,-1.89
2023-03-03T05:20:47.318Z,-1.94
2023-03-03T05:21:47.592Z,-1.99
2023-03-03T05:22:47.757Z,-2
2023-03-03T05:23:47.752Z,-2
2023-03-03T05:24:47.721Z,-1.94
2023-03-03T05:25:47.769Z,-2.03
2023-03-03T05:26:47.683Z,-1.96
2023-03-03T05:27:47.134Z,-2
2023-03-03T05:28:47.374Z,-1.99
2023-03-03T05:29:47.602Z,-1.82
2023-03-03T05:30:47.584Z,-1.92
2023-03-03T05:31:50.524Z,-1.94
2023-03-03T05:32:47.281Z,-1.91
2023-03-03T05:33:47.288Z,-2
2023-03-03T05:34:47.248Z,-1.94
2023-03-03T05:35:47.432Z,-1.88
2023-03-03T05:36:46.978Z,-1.89
2023-03-03T05:37:47.174Z,-1.85
2023-03-03T05:38:47.412Z,-1.86
2023-03-03T05:39:47.389Z,-1.74
2023-03-03T05:40:47.103Z,-1.81
2023-03-03T05:41:47.418Z,-1.81
2023-03-03T05:42:47.368Z,-1.82
2023-03-03T05:43:47.040Z,-1.71
2023-03-03T05:44:47.312Z,-1.71
2023-03-03T05:45:46.998Z,-1.76
2023-03-03T05:46:47.457Z,-1.71
2023-03-03T05:47:47.216Z,-1.68
2023-03-03T05:48:47.194Z,-1.66
2023-03-03T05:49:47.179Z,-1.71
2023-03-03T05:50:47.376Z,-1.71
2023-03-03T05:51:47.138Z,-1.7
2023-03-03T05:52:47.116Z,-1.67
2023-03-03T05:53:46.842Z,-1.74
2023-03-03T05:54:46.820Z,-1.73
2023-03-03T05:55:47.053Z,-1.66
2023-03-03T05:56:46.774Z,-1.68
2023-03-03T05:57:47.085Z,-1.7
2023-03-03T05:58:46.748Z,-1.82
2023-03-03T05:59:46.709Z,-1.73
2023-03-03T06:00:46.701Z,-1.84
2023-03-03T06:01:46.516Z,-1.68
2023-03-03T06:02:46.834Z,-1.7
2023-03-03T06:03:46.960Z,-1.84
2023-03-03T06:04:46.611Z,-1.74
2023-03-03T06:05:46.600Z,-1.74
2023-03-03T06:06:46.575Z,-1.84
2023-03-03T06:07:46.796Z,-1.74
2023-03-03T06:08:46.524Z,-1.82
2023-03-03T06:09:46.540Z,-1.85
2023-03-03T06:10:46.757Z,-1.85
2023-03-03T06:11:46.722Z,-1.78
2023-03-03T06:12:46.442Z,-1.74
2023-03-03T06:13:46.762Z,-1.82
2023-03-03T06:14:46.665Z,-1.82
2023-03-03T06:15:46.778Z,-1.71
2023-03-03T06:16:46.778Z,-1.81
2023-03-03T06:17:46.641Z,-1.82
2023-03-03T06:18:46.057Z,-1.85
2023-03-03T06:19:46.546Z,-1.74
2023-03-03T06:20:46.530Z,-1.71
2023-03-03T06:21:46.530Z,-1.7
2023-03-03T06:22:46.235Z,-1.81
2023-03-03T06:23:46.585Z,-1.74
2023-03-03T06:24:46.517Z,-1.66
2023-03-03T06:25:46.433Z,-1.68
2023-03-03T06:26:46.429Z,-1.66
2023-03-03T06:27:45.881Z,-1.68
2023-03-03T06:28:46.103Z,-1.68
2023-03-03T06:29:46.456Z,-1.68
2023-03-03T06:30:45.829Z,-1.71
2023-03-03T06:31:46.446Z,-1.68
2023-03-03T06:32:46.270Z,-1.66
2023-03-03T06:33:45.783Z,-1.66
2023-03-03T06:34:46.000Z,-1.68
2023-03-03T06:35:46.142Z,-1.7
2023-03-03T06:36:45.943Z,-1.67
2023-03-03T06:37:46.165Z,-1.64
2023-03-03T06:38:45.894Z,-1.64
2023-03-03T06:39:46.248Z,-1.63
2023-03-03T06:40:45.591Z,-1.55
2023-03-03T06:41:46.088Z,-1.61
2023-03-03T06:42:46.064Z,-1.61
2023-03-03T06:43:46.061Z,-1.61
2023-03-03T06:44:45.769Z,-1.53
2023-03-03T06:45:46.235Z,-1.52
2023-03-03T06:46:46.017Z,-1.48
2023-03-03T06:47:45.967Z,-1.5
2023-03-03T06:48:45.674Z,-1.5
2023-03-03T06:49:45.668Z,-1.5
2023-03-03T06:50:45.671Z,-1.45
2023-03-03T06:51:45.884Z,-1.35
2023-03-03T06:52:45.609Z,-1.46
2023-03-03T06:53:45.848Z,-1.5
2023-03-03T06:54:45.561Z,-1.43
2023-03-03T06:55:45.540Z,-1.42
2023-03-03T06:56:45.533Z,-1.45
2023-03-03T06:57:45.765Z,-1.37
2023-03-03T06:58:45.807Z,-1.32
2023-03-03T06:59:45.730Z,-1.38
2023-03-03T07:00:45.788Z,-1.35
2023-03-03T07:01:45.754Z,-1.4
2023-03-03T07:02:46.420Z,-1.42
2023-03-03T07:03:45.637Z,-1.42
2023-03-03T07:04:45.366Z,-1.46
2023-03-03T07:05:45.620Z,-1.5
2023-03-03T07:06:45.585Z,-1.38
2023-03-03T07:07:45.601Z,-1.38
2023-03-03T07:08:45.552Z,-1.35
2023-03-03T07:09:45.257Z,-1.4
2023-03-03T07:10:45.489Z,-1.32
2023-03-03T07:11:48.054Z,-1.24
2023-03-03T07:12:45.449Z,-1.24
2023-03-03T07:13:45.175Z,-1.19
2023-03-03T07:14:45.194Z,-1.25
2023-03-03T07:15:45.401Z,-1.27
2023-03-03T07:16:45.026Z,-1.19
2023-03-03T07:17:45.454Z,-1.25
2023-03-03T07:18:45.088Z,-1.21
2023-03-03T07:19:45.306Z,-1.17
2023-03-03T07:20:45.026Z,-1.19
2023-03-03T07:21:45.275Z,-1.21
2023-03-03T07:22:45.009Z,-1.19
2023-03-03T07:23:45.393Z,-1.27
2023-03-03T07:24:45.211Z,-1.16
2023-03-03T07:25:45.212Z,-1.21
2023-03-03T07:26:45.172Z,-1.1
2023-03-03T07:27:45.149Z,-0.99
2023-03-03T07:28:45.126Z,-0.98
2023-03-03T07:29:44.876Z,-0.96
2023-03-03T07:30:45.319Z,-0.95
2023-03-03T07:31:47.968Z,-0.87
2023-03-03T07:32:45.087Z,-0.92
2023-03-03T07:33:45.102Z,-0.8
2023-03-03T07:34:45.019Z,-0.72
2023-03-03T07:35:45.162Z,-0.66
2023-03-03T07:36:44.444Z,-0.62
2023-03-03T07:37:44.704Z,-0.64
2023-03-03T07:38:44.665Z,-0.7
2023-03-03T07:39:45.326Z,-0.67
2023-03-03T07:40:44.698Z,-0.69
2023-03-03T07:41:44.674Z,-0.64
2023-03-03T07:42:44.596Z,-0.73
2023-03-03T07:43:44.593Z,-0.89
2023-03-03T07:44:44.801Z,-0.85
2023-03-03T07:45:44.870Z,-0.82
2023-03-03T07:46:45.083Z,-0.92
2023-03-03T07:47:44.486Z,-0.89
2023-03-03T07:48:44.463Z,-0.95
2023-03-03T07:49:44.780Z,-0.93
2023-03-03T07:50:44.435Z,-0.92
2023-03-03T07:51:44.584Z,-0.85
2023-03-03T07:52:44.426Z,-0.85
2023-03-03T07:53:44.393Z,-0.79
2023-03-03T07:54:44.349Z,-0.67
2023-03-03T07:55:44.589Z,-0.7
2023-03-03T07:56:44.568Z,-0.54
2023-03-03T07:57:44.711Z,-0.46
2023-03-03T07:58:44.568Z,-0.51
2023-03-03T07:59:44.508Z,-0.43
2023-03-03T08:00:44.406Z,-0.51
2023-03-03T08:01:44.340Z,-0.49
2023-03-03T08:02:44.225Z,-0.48
2023-03-03T08:03:44.429Z,-0.59
2023-03-03T08:04:44.355Z,-0.55
2023-03-03T08:05:44.651Z,-0.52
2023-03-03T08:06:43.844Z,-0.45
2023-03-03T08:07:44.086Z,-0.33
2023-03-03T08:08:44.057Z,-0.33
2023-03-03T08:09:44.039Z,-0.27
2023-03-03T08:10:47.024Z,-0.15
2023-03-03T08:11:44.000Z,-0.13
2023-03-03T08:12:44.403Z,-0.16
2023-03-03T08:13:44.207Z,-0.12
2023-03-03T08:14:44.188Z,-0.12
2023-03-03T08:15:44.299Z,-0.05
2023-03-03T08:16:43.889Z,-0.09
2023-03-03T08:17:44.134Z,-0.12
2023-03-03T08:18:44.094Z,-0.12
2023-03-03T08:19:43.834Z,-0.27
2023-03-03T08:20:43.817Z,-0.31
2023-03-03T08:21:44.108Z,-0.38
2023-03-03T08:22:43.521Z,-0.38
2023-03-03T08:23:44.017Z,-0.38
2023-03-03T08:24:43.724Z,-0.54
2023-03-03T08:25:43.707Z,-0.51
2023-03-03T08:26:43.944Z,-0.59
2023-03-03T08:27:43.913Z,-0.66
2023-03-03T08:28:43.662Z,-0.62
2023-03-03T08:29:43.389Z,-0.69
2023-03-03T08:30:43.988Z,-0.55
2023-03-03T08:31:47.016Z,-0.58
2023-03-03T08:32:44.251Z,-0.51
2023-03-03T08:33:43.540Z,-0.46
2023-03-03T08:34:43.522Z,-0.45
2023-03-03T08:35:43.761Z,-0.48
2023-03-03T08:36:43.236Z,-0.4
2023-03-03T08:37:43.775Z,-0.4
2023-03-03T08:38:43.475Z,-0.38
2023-03-03T08:39:43.677Z,-0.36
2023-03-03T08:40:43.415Z,-0.36
2023-03-03T08:41:43.629Z,-0.34
2023-03-03T08:42:43.610Z,-0.3
2023-03-03T08:43:43.334Z,-0.19
2023-03-03T08:44:43.597Z,-0.05
2023-03-03T08:45:43.577Z,-0.07
2023-03-03T08:46:43.665Z,-0.04
2023-03-03T08:47:43.540Z,0.01
2023-03-03T08:48:43.268Z,0.06
2023-03-03T08:49:43.484Z,0.05
2023-03-03T08:50:42.936Z,0.09
2023-03-03T08:51:43.436Z,0.14
2023-03-03T08:52:43.429Z,0.16
2023-03-03T08:53:43.460Z,0.17
2023-03-03T08:54:43.362Z,0.28
2023-03-03T08:55:43.109Z,0.35
2023-03-03T08:56:43.355Z,0.26
2023-03-03T08:57:43.321Z,0.32
2023-03-03T08:59:03.139Z,0.24
2023-03-03T08:59:43.280Z,0.28
2023-03-03T09:00:43.026Z,0.27
2023-03-03T09:01:43.395Z,0.37
2023-03-03T09:02:42.961Z,0.34
2023-03-03T09:03:43.184Z,0.37
2023-03-03T09:04:43.178Z,0.37
2023-03-03T09:05:42.986Z,0.39
2023-03-03T09:06:43.141Z,0.48
2023-03-03T09:07:43.123Z,0.52
2023-03-03T09:08:43.099Z,0.66
2023-03-03T09:09:43.173Z,0.66
2023-03-03T09:10:43.075Z,0.67
2023-03-03T09:11:42.800Z,0.72
2023-03-03T09:12:43.024Z,0.75
2023-03-03T09:13:42.488Z,0.71
2023-03-03T09:14:42.707Z,0.67
2023-03-03T09:15:42.438Z,0.64
2023-03-03T09:16:42.952Z,0.58
2023-03-03T09:17:42.413Z,0.53
2023-03-03T09:18:42.677Z,0.42
2023-03-03T09:19:42.629Z,0.38
2023-03-03T09:20:42.619Z,0.41
2023-03-03T09:21:42.832Z,0.44
2023-03-03T09:22:42.817Z,0.38
2023-03-03T09:23:42.602Z,0.42
2023-03-03T09:24:42.532Z,0.39
2023-03-03T09:25:44.748Z,0.41
2023-03-03T09:26:42.488Z,0.48
2023-03-03T09:27:42.864Z,0.44
2023-03-03T09:28:42.469Z,0.45
2023-03-03T09:29:42.439Z,0.42
2023-03-03T09:30:42.413Z,0.42
2023-03-03T09:31:42.841Z,0.24
2023-03-03T09:32:42.380Z,0.28
2023-03-03T09:33:42.346Z,0.31
2023-03-03T09:34:42.591Z,0.17
2023-03-03T09:35:42.930Z,0.16
2023-03-03T09:36:42.328Z,0.2
2023-03-03T09:37:42.534Z,0.16
2023-03-03T09:38:42.244Z,0.21
2023-03-03T09:39:42.227Z,0.2
2023-03-03T09:40:42.467Z,0.21
2023-03-03T09:41:42.579Z,0.19
2023-03-03T09:42:42.176Z,0.14
2023-03-03T09:43:42.414Z,0.19
2023-03-03T09:44:42.420Z,0.16
2023-03-03T09:45:42.404Z,0.42
2023-03-03T09:46:42.699Z,0.56
2023-03-03T09:47:42.334Z,0.64
2023-03-03T09:48:42.362Z,0.82
2023-03-03T09:49:42.040Z,0.93
2023-03-03T09:50:42.270Z,1.04
2023-03-03T09:51:41.986Z,0.96
2023-03-03T09:52:42.234Z,0.84
2023-03-03T09:53:41.931Z,0.79
2023-03-03T09:54:42.444Z,0.69
2023-03-03T09:55:42.261Z,0.6
2023-03-03T09:56:42.412Z,0.5
2023-03-03T09:57:42.482Z,0.61
2023-03-03T09:58:42.363Z,0.5
2023-03-03T09:59:42.330Z,0.52
2023-03-03T10:00:42.320Z,0.53
2023-03-03T10:01:42.298Z,0.57
2023-03-03T10:02:42.414Z,0.6
2023-03-03T10:03:41.895Z,0.64
2023-03-03T10:04:41.983Z,0.71
2023-03-03T10:05:42.031Z,0.74
2023-03-03T10:06:42.229Z,0.79
2023-03-03T10:07:42.288Z,0.74
2023-03-03T10:08:42.164Z,0.64
2023-03-03T10:09:42.154Z,0.82
2023-03-03T10:10:41.879Z,0.81
2023-03-03T10:11:42.099Z,0.78
2023-03-03T10:12:41.820Z,0.85
2023-03-03T10:13:42.137Z,0.93
2023-03-03T10:14:42.049Z,0.9
2023-03-03T10:15:41.597Z,0.94
2023-03-03T10:16:42.232Z,0.99
2023-03-03T10:17:41.728Z,0.99
2023-03-03T10:18:41.972Z,0.99
2023-03-03T10:19:41.970Z,1.12
2023-03-03T10:20:55.858Z,1.14
2023-03-03T10:21:41.924Z,1
2023-03-03T10:22:41.643Z,1.12
2023-03-03T10:23:41.912Z,1.07
2023-03-03T10:24:41.593Z,1.1
2023-03-03T10:25:42.343Z,1.1
2023-03-03T10:27:13.304Z,1.07
2023-03-03T10:27:42.499Z,1.1
2023-03-03T10:28:43.363Z,1.11
2023-03-03T10:29:43.423Z,1.04
2023-03-03T10:31:11.696Z,1.18
2023-03-03T10:31:43.503Z,1.18
2023-03-03T10:32:43.767Z,1.11
2023-03-03T10:33:43.787Z,1.17
2023-03-03T10:34:43.267Z,1.14
2023-03-03T10:35:47.121Z,1.1
2023-03-03T10:36:42.960Z,1.08
2023-03-03T10:37:42.943Z,1.17
2023-03-03T10:38:43.184Z,1.17
2023-03-03T10:39:43.149Z,1.32
2023-03-03T10:40:43.188Z,1.39
2023-03-03T10:41:42.895Z,1.54
2023-03-03T10:42:44.902Z,1.64
2023-03-03T10:43:43.102Z,1.68
2023-03-03T10:44:43.081Z,1.72
2023-03-03T10:45:43.265Z,1.74
2023-03-03T10:46:42.795Z,1.74
2023-03-03T10:47:43.004Z,1.71
2023-03-03T10:48:44.321Z,1.69
2023-03-03T10:49:42.485Z,1.58
2023-03-03T10:50:42.950Z,1.58
2023-03-03T10:51:42.687Z,1.71
2023-03-03T10:52:42.661Z,1.68
2023-03-03T10:53:42.895Z,1.65
2023-03-03T10:54:42.878Z,1.61
2023-03-03T10:55:44.572Z,1.66
2023-03-03T10:56:57.649Z,1.61
2023-03-03T10:57:42.593Z,1.68
2023-03-03T10:58:42.713Z,1.74
2023-03-03T10:59:42.541Z,1.78
2023-03-03T11:00:42.774Z,1.57
2023-03-03T11:01:43.091Z,1.64
2023-03-03T11:02:42.474Z,1.56
2023-03-03T11:03:42.481Z,1.58
2023-03-03T11:04:42.724Z,1.5
2023-03-03T11:05:42.182Z,1.44
2023-03-03T11:06:42.673Z,1.4
2023-03-03T11:07:42.380Z,1.35
2023-03-03T11:08:42.667Z,1.24
2023-03-03T11:09:42.764Z,1.28
2023-03-03T11:10:42.082Z,1.15
2023-03-03T11:11:42.564Z,1.14
2023-03-03T11:12:42.564Z,1.15
2023-03-03T11:13:42.546Z,1.12
2023-03-03T11:14:42.493Z,1.07
2023-03-03T11:15:42.258Z,1.11
2023-03-03T11:16:42.299Z,1.12
2023-03-03T11:17:42.517Z,1.21
2023-03-03T11:18:42.429Z,1.22
2023-03-03T11:19:42.423Z,1.21
2023-03-03T11:20:42.396Z,1.24
2023-03-03T11:21:42.376Z,1.14
2023-03-03T11:22:42.088Z,1.04
2023-03-03T11:23:42.337Z,1.03
2023-03-03T11:24:42.655Z,1.04
2023-03-03T11:25:42.366Z,0.93
2023-03-03T11:26:42.019Z,1.04
2023-03-03T11:27:42.241Z,0.97
2023-03-03T11:28:42.233Z,0.94
2023-03-03T11:29:42.232Z,0.92
2023-03-03T11:30:42.125Z,0.82
2023-03-03T11:31:42.183Z,0.89
2023-03-03T11:32:42.147Z,0.89
2023-03-03T11:33:42.236Z,0.75
2023-03-03T11:34:41.887Z,0.81
2023-03-03T11:35:42.274Z,0.81
2023-03-03T11:36:41.825Z,0.75
2023-03-03T11:37:41.800Z,0.72
2023-03-03T11:38:41.784Z,0.81
2023-03-03T11:39:41.763Z,0.79
2023-03-03T11:40:41.992Z,0.84
2023-03-03T11:41:41.982Z,0.84
2023-03-03T11:42:41.987Z,0.82
2023-03-03T11:43:42.675Z,0.9
2023-03-03T11:44:41.682Z,0.85
2023-03-03T11:45:41.944Z,0.9
2023-03-03T11:46:41.633Z,0.9
2023-03-03T11:47:41.619Z,0.93
2023-03-03T11:48:41.840Z,0.93
2023-03-03T11:49:41.912Z,0.99
2023-03-03T11:50:41.804Z,1.07
2023-03-03T11:51:41.550Z,1.04
2023-03-03T11:52:41.506Z,1.14
2023-03-03T11:53:41.281Z,1.14
2023-03-03T11:54:41.232Z,1.14
2023-03-03T11:55:41.574Z,1.21
2023-03-03T11:56:41.687Z,1.11
2023-03-03T11:57:41.418Z,1.15
2023-03-03T11:58:41.664Z,1.08
2023-03-03T11:59:41.366Z,1.02
2023-03-03T12:00:41.397Z,1.14
2023-03-03T12:01:41.342Z,1.15
2023-03-03T12:02:41.876Z,1.14
2023-03-03T12:03:41.571Z,1.17
2023-03-03T12:04:41.546Z,1.1
2023-03-03T12:05:41.735Z,1.03
2023-03-03T12:06:41.492Z,1.11
2023-03-03T12:07:41.473Z,1.17
2023-03-03T12:08:41.460Z,1.04
2023-03-03T12:09:41.452Z,0.99
2023-03-03T12:10:41.428Z,1.08
2023-03-03T12:11:41.159Z,1.1
2023-03-03T12:12:41.378Z,1
2023-03-03T12:13:41.133Z,1
2023-03-03T12:14:41.395Z,0.97
2023-03-03T12:15:41.311Z,0.85
2023-03-03T12:16:41.309Z,0.92
2023-03-03T12:17:41.285Z,1.08
2023-03-03T12:18:41.049Z,1.08
2023-03-03T12:19:41.248Z,1.07
2023-03-03T12:20:41.225Z,1.2
2023-03-03T12:21:41.362Z,1.11
2023-03-03T12:22:41.069Z,1.1
2023-03-03T12:23:41.265Z,1.12
2023-03-03T12:24:41.326Z,1.17
2023-03-03T12:25:40.956Z,1.1
2023-03-03T12:26:42.146Z,1.12
2023-03-03T12:27:41.869Z,1.14
2023-03-03T12:28:41.840Z,1.02
2023-03-03T12:29:42.075Z,1
2023-03-03T12:30:42.095Z,1.03
2023-03-03T12:31:42.068Z,1.08
2023-03-03T12:32:42.057Z,1.1
2023-03-03T12:33:42.029Z,1.08
2023-03-03T12:34:41.711Z,1.12
2023-03-03T12:35:41.905Z,1.04
2023-03-03T12:36:41.714Z,1.03
2023-03-03T12:37:41.996Z,1.15
2023-03-03T12:38:41.936Z,1.17
2023-03-03T12:39:42.074Z,1.1
2023-03-03T12:40:41.592Z,1.14
2023-03-03T12:41:41.854Z,1.18
2023-03-03T12:42:41.565Z,1.12
2023-03-03T12:43:41.554Z,1.22
2023-03-03T12:44:41.800Z,1.24
2023-03-03T12:45:41.244Z,1.24
2023-03-03T12:46:41.660Z,1.33
2023-03-03T12:47:41.739Z,1.28
2023-03-03T12:48:41.204Z,1.39
2023-03-03T12:50:06.366Z,1.5
2023-03-03T12:50:41.430Z,1.5
2023-03-03T12:51:41.665Z,1.51
2023-03-03T12:52:41.633Z,1.46
2023-03-03T12:53:41.711Z,1.44
2023-03-03T12:54:41.946Z,1.36
2023-03-03T12:55:41.598Z,1.26
2023-03-03T12:56:41.314Z,1.22
2023-03-03T12:57:41.291Z,1.11
2023-03-03T12:58:41.534Z,1.12
2023-03-03T12:59:41.519Z,1.15
2023-03-03T13:00:41.766Z,1.14
2023-03-03T13:01:41.203Z,1.07
2023-03-03T13:02:41.188Z,1.02
2023-03-03T13:03:58.686Z,1.07
2023-03-03T13:04:41.425Z,0.94
2023-03-03T13:05:41.411Z,0.93
2023-03-03T13:06:41.401Z,1.03
2023-03-03T13:07:41.554Z,0.86
2023-03-03T13:08:41.080Z,0.94
2023-03-03T13:09:41.391Z,0.92
2023-03-03T13:10:41.034Z,0.9
2023-03-03T13:11:41.274Z,0.81
2023-03-03T13:12:40.992Z,0.82
2023-03-03T13:13:41.328Z,0.85
2023-03-03T13:14:41.224Z,0.85
2023-03-03T13:15:55.638Z,0.81
2023-03-03T13:16:46.706Z,0.79
2023-03-03T13:17:41.201Z,0.86
2023-03-03T13:18:41.141Z,0.82
2023-03-03T13:19:40.890Z,0.78
2023-03-03T13:20:41.198Z,0.79
2023-03-03T13:21:41.095Z,0.82
2023-03-03T13:22:41.071Z,0.63